Sea Thames — V2BV1 — position and weather

sailwx.info

Track history (hours):
 
Tides and Currents Weather Stations Pressure Air Temp Water Temp Dewpoint Dewpoint Depression Visibility Wind Speed Wind Dir Waves Ship Positions

Sea Thames

Last reported at 2016-May-04 00:33 UTC. Time now 2016-May-05 06:45 UTC.
Position N 45°49' W 002°03'.

Length 87 m; draft 3.2 m.

Type: Cargo ship. MMSI: 304933000.

Date/timePositionNaut miles runAvg speedWind from/ knotsBaromVisibWave heightAir tempDewpointWater temp
2016-May-04 00:33N 45°49' W 002°03'7 6.5
2016-May-03 23:33N 45°52' W 002°11'207 7.1
2016-May-02 18:27N 48°35' W 005°19'8 8.5
2016-May-02 17:32N 48°41' W 005°12'8 8.1
2016-May-02 16:33N 48°47' W 005°03'63 6.7
2016-May-02 07:10N 49°33' W 003°59'5 7.4
2016-May-02 06:30N 49°36' W 003°53'16 7.4
2016-May-02 04:18N 49°46' W 003°32'5 7.0
2016-May-02 03:34N 49°48' W 003°25'7 6.8
2016-May-02 02:34N 49°52' W 003°16'7 6.7
2016-May-02 01:31N 49°55' W 003°07'7 6.9
2016-May-02 00:34N 49°59' W 002°58'7 7.4
2016-May-01 23:33N 50°01' W 002°47'94 7.8
2016-May-01 11:33N 50°27' W 000°26'9 8.9
2016-May-01 10:34N 50°29' W 000°12'10 9.2
2016-May-01 09:30N 50°31' E 000°02'9 9.3
2016-May-01 08:33N 50°34' E 000°16'42 8.2
2016-May-01 03:25N 50°56' E 001°12'7 8.4
2016-May-01 02:34N 51°01' E 001°21'10 9.8
2016-May-01 01:34N 51°07' E 001°33'1010.1
2016-May-01 00:33N 51°14' E 001°45'9 9.3
2016-Apr-30 23:34N 51°22' E 001°52'8 8.5
2016-Apr-30 22:34N 51°29' E 001°59'8 7.7
2016-Apr-30 21:32N 51°35' E 002°07'67 7.1
2016-Apr-30 12:13N 52°04' E 003°44'6 8.1
2016-Apr-30 11:30N 52°04' E 003°53'7 7.7
2016-Apr-30 10:33N 51°60' E 004°03'9 9.2
2016-Apr-30 09:34N 51°55' E 004°15'4 4.1
2016-Apr-30 08:30N 51°54' E 004°22'0 0.0
2016-Apr-30 07:27N 51°54' E 004°22'0 0.0
2016-Apr-30 06:28N 51°54' E 004°22'0 0.0
2016-Apr-30 05:33N 51°54' E 004°22'0 0.0
2016-Apr-30 04:31N 51°54' E 004°22'0 0.0
2016-Apr-30 03:33N 51°54' E 004°22'0 0.0
2016-Apr-30 02:33N 51°54' E 004°22'0 0.0
2016-Apr-30 01:27N 51°54' E 004°22'0 0.0
2016-Apr-30 00:28N 51°54' E 004°22'0 0.0
2016-Apr-29 23:33N 51°54' E 004°22'0 0.0
2016-Apr-29 22:30N 51°54' E 004°22'0 0.0
2016-Apr-29 21:26N 51°54' E 004°22'0 0.0
2016-Apr-29 20:28N 51°54' E 004°22'0 0.0
2016-Apr-29 19:33N 51°54' E 004°22'0 0.0
2016-Apr-29 18:33N 51°54' E 004°22'0 0.0
2016-Apr-29 17:27N 51°54' E 004°22'0 0.0
2016-Apr-29 16:31N 51°54' E 004°22'0 0.0
2016-Apr-29 15:27N 51°54' E 004°22'0 0.0
2016-Apr-29 14:31N 51°54' E 004°22'0 0.0
2016-Apr-29 13:32N 51°54' E 004°22'0 0.0
2016-Apr-29 12:31N 51°54' E 004°22'0 0.0
2016-Apr-29 11:33N 51°54' E 004°22'0 0.0
2016-Apr-29 10:30N 51°54' E 004°22'0 0.0
2016-Apr-29 09:32N 51°54' E 004°22'0 0.0
2016-Apr-29 08:31N 51°54' E 004°22'0 0.0
2016-Apr-29 07:32N 51°54' E 004°22'0 0.0
2016-Apr-29 06:30N 51°54' E 004°22'0 0.0
2016-Apr-29 05:32N 51°54' E 004°22'0 0.0
2016-Apr-29 04:29N 51°54' E 004°22'0 0.0
2016-Apr-29 03:25N 51°54' E 004°22'0 0.0
2016-Apr-29 02:28N 51°54' E 004°22'0 0.0
2016-Apr-29 01:27N 51°54' E 004°22'0 0.0
2016-Apr-29 00:30N 51°54' E 004°22'0 0.0
2016-Apr-28 23:33N 51°54' E 004°22'5 5.3
2016-Apr-28 22:33N 51°55' E 004°31'12 8.5
2016-Apr-28 21:06N 51°49' E 004°49'5 9.5
2016-Apr-28 20:33N 51°50' E 004°57'57 9.1
2016-Apr-28 14:18N 51°42' E 006°28'6 8.7
2016-Apr-28 13:33N 51°37' E 006°35'8 8.3
2016-Apr-28 12:32N 51°30' E 006°42'2 0.1
2016-Apr-27 07:20N 51°28' E 006°43'2 2.3
2016-Apr-27 06:32N 51°30' E 006°43'4 3.9
2016-Apr-27 05:33N 51°33' E 006°41'4 3.2
2016-Apr-27 04:24N 51°35' E 006°36'4 4.7
2016-Apr-27 03:33N 51°39' E 006°36'63 4.5
2016-Apr-26 13:33N 51°50' E 004°55'8 6.1
2016-Apr-26 12:12N 51°49' E 004°42'4 5.5
2016-Apr-26 11:26N 51°53' E 004°38'5 5.4
2016-Apr-26 10:32N 51°55' E 004°31'2 1.5
2016-Apr-26 09:31N 51°54' E 004°28'0 0.0
2016-Apr-26 08:33N 51°54' E 004°28'1 1.5
2016-Apr-26 07:33N 51°54' E 004°26'7 6.9
2016-Apr-26 06:33N 51°55' E 004°15'7 7.2
2016-Apr-26 05:34N 51°59' E 004°05'9 8.7
2016-Apr-26 04:33N 51°59' E 003°51'18 8.9
2016-Apr-26 02:33N 51°55' E 003°23'8 8.2
2016-Apr-26 01:32N 51°52' E 003°10'7 7.3
2016-Apr-26 00:33N 51°50' E 002°59'28 5.4
2016-Apr-25 19:21N 51°33' E 002°23'5 6.5
2016-Apr-25 18:33N 51°29' E 002°17'7 6.5
2016-Apr-25 17:33N 51°24' E 002°11'6 6.4
2016-Apr-25 16:33N 51°18' E 002°07'7 7.4
2016-Apr-25 15:33N 51°12' E 001°59'9 8.8
2016-Apr-25 14:33N 51°07' E 001°48'79 6.5
2016-Apr-25 02:27N 50°20' E 000°08'13 6.6
2016-Apr-25 00:31N 50°17' W 000°11'  
Track history (hours):
 
Tides and Currents Weather Stations Pressure Air Temp Water Temp Dewpoint Dewpoint Depression Visibility Wind Speed Wind Dir Waves Ship Positions

Sea Thames

Last reported at 2016-May-04 00:33 UTC. Time now 2016-May-05 06:45 UTC.
Position N 45°49' W 002°03'.

Length 87 m; draft 3.2 m.

Type: Cargo ship. MMSI: 304933000.

Date/timePositionNaut miles runAvg speedWind from/ knotsBaromVisibWave heightAir tempDewpointWater temp
2016-May-04 00:33N 45°49' W 002°03'7 6.5
2016-May-03 23:33N 45°52' W 002°11'207 7.1
2016-May-02 18:27N 48°35' W 005°19'8 8.5
2016-May-02 17:32N 48°41' W 005°12'8 8.1
2016-May-02 16:33N 48°47' W 005°03'63 6.7
2016-May-02 07:10N 49°33' W 003°59'5 7.4
2016-May-02 06:30N 49°36' W 003°53'16 7.4
2016-May-02 04:18N 49°46' W 003°32'5 7.0
2016-May-02 03:34N 49°48' W 003°25'7 6.8
2016-May-02 02:34N 49°52' W 003°16'7 6.7
2016-May-02 01:31N 49°55' W 003°07'7 6.9
2016-May-02 00:34N 49°59' W 002°58'7 7.4
2016-May-01 23:33N 50°01' W 002°47'94 7.8
2016-May-01 11:33N 50°27' W 000°26'9 8.9
2016-May-01 10:34N 50°29' W 000°12'10 9.2
2016-May-01 09:30N 50°31' E 000°02'9 9.3
2016-May-01 08:33N 50°34' E 000°16'42 8.2
2016-May-01 03:25N 50°56' E 001°12'7 8.4
2016-May-01 02:34N 51°01' E 001°21'10 9.8
2016-May-01 01:34N 51°07' E 001°33'1010.1
2016-May-01 00:33N 51°14' E 001°45'9 9.3
2016-Apr-30 23:34N 51°22' E 001°52'8 8.5
2016-Apr-30 22:34N 51°29' E 001°59'8 7.7
2016-Apr-30 21:32N 51°35' E 002°07'67 7.1
2016-Apr-30 12:13N 52°04' E 003°44'6 8.1
2016-Apr-30 11:30N 52°04' E 003°53'7 7.7
2016-Apr-30 10:33N 51°60' E 004°03'9 9.2
2016-Apr-30 09:34N 51°55' E 004°15'4 4.1
2016-Apr-30 08:30N 51°54' E 004°22'0 0.0
2016-Apr-30 07:27N 51°54' E 004°22'0 0.0
2016-Apr-30 06:28N 51°54' E 004°22'0 0.0
2016-Apr-30 05:33N 51°54' E 004°22'0 0.0
2016-Apr-30 04:31N 51°54' E 004°22'0 0.0
2016-Apr-30 03:33N 51°54' E 004°22'0 0.0
2016-Apr-30 02:33N 51°54' E 004°22'0 0.0
2016-Apr-30 01:27N 51°54' E 004°22'0 0.0
2016-Apr-30 00:28N 51°54' E 004°22'0 0.0
2016-Apr-29 23:33N 51°54' E 004°22'0 0.0
2016-Apr-29 22:30N 51°54' E 004°22'0 0.0
2016-Apr-29 21:26N 51°54' E 004°22'0 0.0
2016-Apr-29 20:28N 51°54' E 004°22'0 0.0
2016-Apr-29 19:33N 51°54' E 004°22'0 0.0
2016-Apr-29 18:33N 51°54' E 004°22'0 0.0
2016-Apr-29 17:27N 51°54' E 004°22'0 0.0
2016-Apr-29 16:31N 51°54' E 004°22'0 0.0
2016-Apr-29 15:27N 51°54' E 004°22'0 0.0
2016-Apr-29 14:31N 51°54' E 004°22'0 0.0
2016-Apr-29 13:32N 51°54' E 004°22'0 0.0
2016-Apr-29 12:31N 51°54' E 004°22'0 0.0
2016-Apr-29 11:33N 51°54' E 004°22'0 0.0
2016-Apr-29 10:30N 51°54' E 004°22'0 0.0
2016-Apr-29 09:32N 51°54' E 004°22'0 0.0
2016-Apr-29 08:31N 51°54' E 004°22'0 0.0
2016-Apr-29 07:32N 51°54' E 004°22'0 0.0
2016-Apr-29 06:30N 51°54' E 004°22'0 0.0
2016-Apr-29 05:32N 51°54' E 004°22'0 0.0
2016-Apr-29 04:29N 51°54' E 004°22'0 0.0
2016-Apr-29 03:25N 51°54' E 004°22'0 0.0
2016-Apr-29 02:28N 51°54' E 004°22'0 0.0
2016-Apr-29 01:27N 51°54' E 004°22'0 0.0
2016-Apr-29 00:30N 51°54' E 004°22'0 0.0
2016-Apr-28 23:33N 51°54' E 004°22'5 5.3
2016-Apr-28 22:33N 51°55' E 004°31'12 8.5
2016-Apr-28 21:06N 51°49' E 004°49'5 9.5
2016-Apr-28 20:33N 51°50' E 004°57'57 9.1
2016-Apr-28 14:18N 51°42' E 006°28'6 8.7
2016-Apr-28 13:33N 51°37' E 006°35'8 8.3
2016-Apr-28 12:32N 51°30' E 006°42'2 0.1
2016-Apr-27 07:20N 51°28' E 006°43'2 2.3
2016-Apr-27 06:32N 51°30' E 006°43'4 3.9
2016-Apr-27 05:33N 51°33' E 006°41'4 3.2
2016-Apr-27 04:24N 51°35' E 006°36'4 4.7
2016-Apr-27 03:33N 51°39' E 006°36'63 4.5
2016-Apr-26 13:33N 51°50' E 004°55'8 6.1
2016-Apr-26 12:12N 51°49' E 004°42'4 5.5
2016-Apr-26 11:26N 51°53' E 004°38'5 5.4
2016-Apr-26 10:32N 51°55' E 004°31'2 1.5
2016-Apr-26 09:31N 51°54' E 004°28'0 0.0
2016-Apr-26 08:33N 51°54' E 004°28'1 1.5
2016-Apr-26 07:33N 51°54' E 004°26'7 6.9
2016-Apr-26 06:33N 51°55' E 004°15'7 7.2
2016-Apr-26 05:34N 51°59' E 004°05'9 8.7
2016-Apr-26 04:33N 51°59' E 003°51'18 8.9
2016-Apr-26 02:33N 51°55' E 003°23'8 8.2
2016-Apr-26 01:32N 51°52' E 003°10'7 7.3
2016-Apr-26 00:33N 51°50' E 002°59'28 5.4
2016-Apr-25 19:21N 51°33' E 002°23'5 6.5
2016-Apr-25 18:33N 51°29' E 002°17'7 6.5
2016-Apr-25 17:33N 51°24' E 002°11'6 6.4
2016-Apr-25 16:33N 51°18' E 002°07'7 7.4
2016-Apr-25 15:33N 51°12' E 001°59'9 8.8
2016-Apr-25 14:33N 51°07' E 001°48'79 6.5
2016-Apr-25 02:27N 50°20' E 000°08'13 6.6
2016-Apr-25 00:31N 50°17' W 000°11'  

Dump ship's entire track history